Time;durP1;ratioP1;P1;durP2;ratioP2;P2;SDS_P1;SDS_P2;PMS_P1;PMS_P2;Temp;Humidity;BMP_temperature;BMP_pressure;BME280_temperature;BME280_humidity;BME280_pressure;Samples;Min_cycle;Max_cycle;Signal;HPM_P1;HPM_P2
2023/10/23 00:01:45;;;;;;;;;;;15.80;58.30;;;14.69;60.19;100934.34;12283825;19;19943;-84
2023/10/23 00:05:47;;;;;;;;;;;15.80;58.30;;;14.64;60.28;100944.34;12281704;19;19911;-85
2023/10/23 00:09:48;;;;;;;;;;;15.70;58.20;;;14.67;60.34;100956.44;12281266;19;20355;-84
2023/10/23 00:13:50;;;;;;;;;;;15.70;58.20;;;14.57;60.31;100951.78;12285047;19;19915;-85
2023/10/23 00:17:51;;;;;;;;;;;15.60;58.10;;;14.45;60.35;100931.59;12282300;19;19943;-84
2023/10/23 00:21:53;;;;;;;;;;;15.60;58.20;;;14.49;60.23;100942.72;12282921;19;19911;-84
2023/10/23 00:25:54;;;;;;;;;;;15.60;58.50;;;14.35;60.37;100920.84;12281119;19;19923;-84
2023/10/23 00:29:56;;;;;;;;;;;15.50;58.20;;;14.43;60.39;100949.25;12281269;19;19918;-85
2023/10/23 00:33:57;;;;;;;;;;;15.50;58.20;;;14.45;60.31;100946.53;12281073;19;20263;-85
2023/10/23 00:37:59;;;;;;;;;;;15.40;58.20;;;14.17;60.26;100909.78;12277939;19;20329;-83
2023/10/23 00:42:02;;;;;;;;;;;15.40;58.20;;;14.29;60.40;100931.78;12280829;19;19923;-84
2023/10/23 00:46:10;;;;;;;;;;;15.40;58.30;;;14.33;60.35;100948.16;12278835;19;19919;-84
2023/10/23 00:50:12;;;;;;;;;;;15.40;58.30;;;14.26;60.39;100936.41;12279241;19;19933;-84
2023/10/23 00:54:14;;;;;;;;;;;15.40;58.30;;;14.29;60.19;100952.81;12282435;19;19926;-83
2023/10/23 00:58:16;;;;;;;;;;;15.30;58.20;;;14.23;60.20;100936.59;12279514;19;19925;-84
2023/10/23 01:02:18;;;;;;;;;;;15.30;58.20;;;14.22;60.17;100940.19;12279602;19;20324;-83
2023/10/23 01:06:20;;;;;;;;;;;15.30;58.10;;;14.04;60.28;100919.47;12277724;19;19919;-84
2023/10/23 01:10:22;;;;;;;;;;;15.20;58.00;;;14.09;60.20;100943.59;12275556;19;19911;-84
2023/10/23 01:14:24;;;;;;;;;;;15.20;58.00;;;14.08;60.24;100949.81;12277643;19;19915;-83
2023/10/23 01:18:25;;;;;;;;;;;15.10;57.90;;;13.95;60.13;100938.44;12274568;19;20296;-84
2023/10/23 01:22:27;;;;;;;;;;;15.10;57.90;;;13.99;60.23;100939.94;12277891;19;19927;-84
2023/10/23 01:26:28;;;;;;;;;;;15.00;57.90;;;13.92;60.20;100938.63;12276176;19;19952;-83
2023/10/23 01:30:30;;;;;;;;;;;15.00;57.90;;;13.88;60.17;100950.28;12281792;19;19915;-83
2023/10/23 01:34:32;;;;;;;;;;;14.90;58.20;;;13.78;60.27;100936.94;12285884;19;19923;-85
2023/10/23 01:38:34;;;;;;;;;;;14.90;57.90;;;13.79;60.19;100956.13;12284838;19;19923;-85
2023/10/23 01:42:35;;;;;;;;;;;14.80;57.90;;;13.79;60.20;100969.25;12287199;19;19922;-85
2023/10/23 01:46:37;;;;;;;;;;;14.80;58.00;;;13.77;60.25;100966.75;12281633;19;20268;-84
2023/10/23 01:50:39;;;;;;;;;;;14.80;58.20;;;13.67;60.20;100950.75;12283962;19;19978;-85
2023/10/23 01:54:40;;;;;;;;;;;14.70;58.00;;;13.65;60.18;100957.03;12287618;19;20011;-85
2023/10/23 01:58:42;;;;;;;;;;;14.70;58.10;;;13.53;60.24;100944.69;12285451;19;19918;-83
2023/10/23 02:02:44;;;;;;;;;;;14.70;58.10;;;13.58;60.25;100956.56;12288565;19;20278;-83
2023/10/23 02:06:46;;;;;;;;;;;14.70;58.10;;;13.57;60.16;100960.13;12282111;19;19914;-84
2023/10/23 02:10:47;;;;;;;;;;;14.60;58.00;;;13.54;60.33;100970.00;12283874;19;19927;-83
2023/10/23 02:14:52;;;;;;;;;;;14.60;57.90;;;13.47;60.26;100974.78;12285707;19;19907;-83
2023/10/23 02:18:54;;;;;;;;;;;14.50;57.90;;;13.43;60.19;100981.16;12284653;19;19918;-85
2023/10/23 02:22:55;;;;;;;;;;;14.50;57.90;;;13.41;60.17;100986.50;12285774;19;19925;-84
2023/10/23 02:26:57;;;;;;;;;;;14.40;57.90;;;13.34;60.16;100979.09;12281241;19;19948;-84
2023/10/23 02:31:05;;;;;;;;;;;14.40;57.90;;;13.15;60.15;100953.16;12281545;19;19918;-83
2023/10/23 02:35:06;;;;;;;;;;;14.30;57.80;;;13.11;60.09;100957.75;12283282;19;19939;-83
2023/10/23 02:39:09;;;;;;;;;;;14.30;57.80;;;13.23;60.08;100987.63;12282351;19;20314;-84
2023/10/23 02:43:12;;;;;;;;;;;14.30;57.80;;;12.85;60.05;100941.00;12283078;19;19918;-84
2023/10/23 02:47:13;;;;;;;;;;;14.20;57.70;;;12.92;60.14;100960.69;12279472;19;19922;-84
2023/10/23 02:51:15;;;;;;;;;;;14.20;57.70;;;12.81;60.12;100961.34;12280204;19;19921;-84
2023/10/23 02:55:17;;;;;;;;;;;14.10;57.70;;;13.03;60.17;101004.59;12283208;19;19915;-84
2023/10/23 02:59:18;;;;;;;;;;;14.00;57.80;;;12.96;60.14;100995.41;12279278;19;19915;-84
2023/10/23 03:03:20;;;;;;;;;;;14.00;57.80;;;12.96;60.17;101009.38;12272918;19;19986;-83
2023/10/23 03:07:22;;;;;;;;;;;14.00;57.80;;;12.88;60.28;100998.50;12273592;19;19927;-83
2023/10/23 03:11:24;;;;;;;;;;;14.00;57.90;;;12.90;60.24;101011.50;12274340;19;19915;-83
2023/10/23 03:15:25;;;;;;;;;;;13.90;57.90;;;12.86;60.25;101010.03;12277710;19;19923;-84
2023/10/23 03:19:27;;;;;;;;;;;13.90;57.90;;;12.89;60.04;101022.94;12269870;19;19922;-83
2023/10/23 03:23:30;;;;;;;;;;;13.90;57.90;;;12.74;60.37;101001.09;12278645;19;19915;-85
2023/10/23 03:27:32;;;;;;;;;;;13.90;58.00;;;12.73;60.30;101010.75;12272308;19;19922;-83
2023/10/23 03:31:35;;;;;;;;;;;13.90;58.00;;;12.57;60.32;100991.63;12276517;19;19946;-83
2023/10/23 03:35:42;;;;;;;;;;;13.80;57.90;;;12.77;60.33;101032.34;12274785;19;19915;-83
2023/10/23 03:39:44;;;;;;;;;;;13.80;58.00;;;12.61;60.36;101019.34;12268951;19;19942;-84
2023/10/23 03:43:46;;;;;;;;;;;13.80;58.00;;;12.73;60.27;101034.31;12273695;19;19932;-83
2023/10/23 03:47:48;;;;;;;;;;;13.80;58.00;;;12.72;60.25;101035.28;12271357;19;19922;-84
2023/10/23 03:51:49;;;;;;;;;;;13.80;58.00;;;12.69;60.24;101032.84;12271621;19;19958;-83
2023/10/23 03:55:51;;;;;;;;;;;13.80;58.00;;;12.68;60.38;101033.75;12277826;19;19915;-84
2023/10/23 03:59:52;;;;;;;;;;;13.80;58.00;;;12.64;60.43;101024.41;12272105;19;19926;-84
2023/10/23 04:03:54;;;;;;;;;;;13.80;58.10;;;12.69;60.33;101026.72;12271880;19;19915;-83
2023/10/23 04:07:56;;;;;;;;;;;13.70;58.00;;;12.68;60.36;101038.16;12273875;19;19911;-83
2023/10/23 04:11:58;;;;;;;;;;;13.80;58.10;;;12.58;60.39;101032.59;12276013;19;19922;-83
2023/10/23 04:16:00;;;;;;;;;;;13.70;58.00;;;12.53;60.33;101037.25;12272856;19;19931;-83
2023/10/23 04:20:02;;;;;;;;;;;13.70;58.00;;;12.58;60.39;101046.56;12269208;19;19970;-83
2023/10/23 04:24:06;;;;;;;;;;;13.70;57.90;;;12.56;60.32;101058.91;12273079;19;19936;-83
2023/10/23 04:28:08;;;;;;;;;;;13.70;58.00;;;12.50;60.33;101058.41;12272494;19;19911;-83
2023/10/23 04:32:09;;;;;;;;;;;13.60;57.90;;;12.46;60.38;101060.38;12272187;19;19942;-85
2023/10/23 04:36:11;;;;;;;;;;;13.60;57.90;;;12.36;60.37;101049.56;12272913;19;19933;-83
2023/10/23 04:40:13;;;;;;;;;;;13.50;58.00;;;12.43;60.35;101062.31;12268500;19;19923;-84
2023/10/23 04:44:14;;;;;;;;;;;13.50;58.00;;;12.44;60.52;101070.06;12269555;19;19975;-83
2023/10/23 04:48:16;;;;;;;;;;;13.50;58.00;;;12.38;60.45;101070.44;12273097;19;19927;-83
2023/10/23 04:52:18;;;;;;;;;;;13.50;58.00;;;12.36;60.39;101069.69;12269211;19;19923;-84
2023/10/23 04:56:19;;;;;;;;;;;13.50;58.40;;;12.38;60.38;101076.50;12274248;19;19926;-85
2023/10/23 05:00:21;;;;;;;;;;;13.50;58.00;;;12.31;60.38;101079.56;12271125;19;19923;-84
2023/10/23 05:04:23;;;;;;;;;;;13.50;58.00;;;12.36;60.35;101080.16;12270576;19;20325;-84
2023/10/23 05:08:24;;;;;;;;;;;13.50;57.90;;;12.32;60.43;101091.75;12283350;19;19915;-83
2023/10/23 05:12:25;;;;;;;;;;;13.40;57.80;;;12.28;60.47;101088.44;12287583;19;19922;-84
2023/10/23 05:16:27;;;;;;;;;;;13.40;57.80;;;12.22;60.39;101083.56;12287551;19;19923;-83
2023/10/23 05:20:28;;;;;;;;;;;13.40;57.80;;;11.79;60.49;101023.09;12284712;19;19919;-84
2023/10/23 05:24:30;;;;;;;;;;;13.30;57.90;;;12.22;60.30;101091.41;12289815;19;19923;-84
2023/10/23 05:28:31;;;;;;;;;;;13.30;57.90;;;12.18;60.55;101103.00;12282436;19;19923;-83
2023/10/23 05:32:37;;;;;;;;;;;13.30;57.90;;;12.18;60.36;101113.47;12280752;19;19919;-85
2023/10/23 05:36:39;;;;;;;;;;;13.30;57.90;;;12.15;60.56;101118.84;12282899;19;19921;-84
2023/10/23 05:40:40;;;;;;;;;;;13.30;57.90;;;12.11;60.49;101106.88;12280569;19;19971;-84
2023/10/23 05:44:42;;;;;;;;;;;13.30;57.90;;;12.04;60.55;101106.34;12279000;19;19927;-84
2023/10/23 05:48:43;;;;;;;;;;;13.20;57.90;;;12.09;60.38;101120.03;12279408;19;20370;-84
2023/10/23 05:52:45;;;;;;;;;;;13.20;57.80;;;11.97;60.34;101101.56;12278249;19;19947;-83
2023/10/23 05:56:47;;;;;;;;;;;13.20;57.70;;;11.99;60.30;101124.13;12272960;19;19930;-83
2023/10/23 06:00:49;;;;;;;;;;;13.10;57.60;;;11.92;60.32;101115.72;12276448;19;19922;-84
2023/10/23 06:04:50;;;;;;;;;;;13.10;57.60;;;11.91;60.36;101116.69;12277742;19;19922;-84
2023/10/23 06:08:52;;;;;;;;;;;13.00;57.60;;;11.84;60.33;101117.06;12277947;19;19923;-84
2023/10/23 06:12:53;;;;;;;;;;;13.00;57.60;;;11.51;60.26;101076.09;12279659;19;19978;-85
2023/10/23 06:16:55;;;;;;;;;;;13.00;57.60;;;11.65;60.30;101106.75;12265124;19;19922;-84
2023/10/23 06:20:59;;;;;;;;;;;12.90;57.50;;;11.65;60.51;101120.66;12270146;19;19925;-84
2023/10/23 06:25:01;;;;;;;;;;;12.90;57.50;;;11.70;60.39;101133.50;12276783;19;19934;-84
2023/10/23 06:29:03;;;;;;;;;;;12.90;57.60;;;11.72;60.30;101153.41;12279354;19;20656;-84
2023/10/23 06:33:04;;;;;;;;;;;12.80;57.60;;;11.35;60.47;101104.81;12267763;19;19915;-83
2023/10/23 06:37:06;;;;;;;;;;;12.80;57.70;;;11.41;60.41;101111.50;12265820;19;19919;-84
2023/10/23 06:41:08;;;;;;;;;;;12.80;57.80;;;11.72;60.64;101169.13;12265547;19;19930;-85
2023/10/23 06:45:10;;;;;;;;;;;12.80;57.90;;;11.63;60.64;101155.66;12263137;19;19994;-82
2023/10/23 06:49:11;;;;;;;;;;;12.80;57.90;;;11.74;60.73;101177.72;12267860;19;20326;-83
2023/10/23 06:53:16;;;;;;;;;;;12.90;58.00;;;11.70;60.63;101162.28;12261201;19;19923;-84
2023/10/23 06:57:18;;;;;;;;;;;12.90;58.10;;;11.77;60.62;101168.00;12271314;19;19911;-84
2023/10/23 07:01:19;;;;;;;;;;;12.90;58.20;;;11.79;60.62;101176.63;12256527;19;19919;-84
2023/10/23 07:05:21;;;;;;;;;;;13.00;58.30;;;11.84;60.63;101172.84;12272021;19;20400;-82
2023/10/23 07:09:22;;;;;;;;;;;13.00;58.40;;;11.92;60.80;101186.41;12266846;19;19918;-84
2023/10/23 07:13:24;;;;;;;;;;;13.10;58.50;;;11.89;60.74;101176.09;12267890;19;19922;-84
2023/10/23 07:17:25;;;;;;;;;;;13.10;58.70;;;12.05;60.67;101191.00;12261294;19;19947;-84
2023/10/23 07:21:27;;;;;;;;;;;13.20;58.80;;;12.06;60.80;101183.03;12258321;19;20282;-83
2023/10/23 07:25:29;;;;;;;;;;;13.30;58.90;;;12.17;60.85;101193.75;12260419;19;19907;-84
2023/10/23 07:29:30;;;;;;;;;;;13.30;58.90;;;12.05;60.95;101165.66;12253857;19;19999;-84
2023/10/23 07:33:32;;;;;;;;;;;13.40;59.00;;;12.15;60.88;101158.13;12263973;19;19978;-83
2023/10/23 07:37:33;;;;;;;;;;;13.50;59.20;;;12.31;60.85;101182.56;12255445;19;19931;-84
2023/10/23 07:41:35;;;;;;;;;;;13.60;59.30;;;12.44;60.96;101190.56;12258061;19;19922;-84
2023/10/23 07:45:39;;;;;;;;;;;13.60;59.40;;;12.21;61.00;101147.34;12262663;19;19922;-84
2023/10/23 07:49:40;;;;;;;;;;;13.70;59.50;;;12.49;61.06;101175.44;12248254;19;19982;-84
2023/10/23 07:53:42;;;;;;;;;;;13.80;59.60;;;12.59;61.01;101179.25;12258258;19;19924;-83
2023/10/23 07:57:43;;;;;;;;;;;13.90;59.70;;;12.61;61.15;101152.97;12256737;19;19922;-84
2023/10/23 08:01:45;;;;;;;;;;;14.00;59.90;;;12.76;61.05;101161.72;12254248;19;19907;-84
2023/10/23 08:05:46;;;;;;;;;;;14.10;60.20;;;12.83;61.15;101171.75;12252435;19;19919;-83
2023/10/23 08:09:48;;;;;;;;;;;14.10;60.80;;;13.02;61.12;101186.44;12266874;19;19938;-84
2023/10/23 08:13:49;;;;;;;;;;;14.30;60.80;;;13.12;61.18;101195.44;12273199;19;19955;-84
2023/10/23 08:17:51;;;;;;;;;;;14.40;60.70;;;13.18;61.19;101187.22;12258487;19;19922;-85
2023/10/23 08:21:53;;;;;;;;;;;14.40;60.30;;;13.25;61.23;101185.91;12249987;19;19983;-84
2023/10/23 08:25:54;;;;;;;;;;;14.50;60.20;;;13.32;61.27;101186.44;12248322;19;19919;-84
2023/10/23 08:29:56;;;;;;;;;;;14.60;60.20;;;13.33;61.29;101179.41;12251343;19;19923;-86
2023/10/23 08:33:58;;;;;;;;;;;14.70;60.30;;;13.50;61.24;101197.59;12254496;19;19950;-85
2023/10/23 08:37:59;;;;;;;;;;;14.80;60.50;;;13.59;61.30;101212.81;12251182;19;19919;-84
2023/10/23 08:42:01;;;;;;;;;;;14.90;60.30;;;13.62;61.42;101209.16;12252506;19;19915;-84
2023/10/23 08:46:04;;;;;;;;;;;14.90;60.10;;;13.35;61.47;101156.56;12253605;19;19986;-85
2023/10/23 08:50:05;;;;;;;;;;;15.00;60.20;;;13.70;61.42;101207.75;12253338;19;20042;-85
2023/10/23 08:54:17;;;;;;;;;;;15.10;60.10;;;13.87;61.38;101216.38;12254208;19;19911;-84
2023/10/23 08:58:19;;;;;;;;;;;15.20;60.30;;;13.84;61.39;101193.78;12257862;19;19932;-84
2023/10/23 09:02:21;;;;;;;;;;;15.20;60.20;;;13.95;61.44;101208.88;12252425;19;19938;-85
2023/10/23 09:06:23;;;;;;;;;;;15.30;60.20;;;13.98;61.46;101199.97;12254098;19;19911;-85
2023/10/23 09:10:26;;;;;;;;;;;15.40;60.20;;;14.00;61.55;101187.59;12262886;19;20322;-84
2023/10/23 09:14:31;;;;;;;;;;;15.40;60.20;;;14.19;61.49;101213.56;12258650;19;20017;-85
2023/10/23 09:18:33;;;;;;;;;;;15.50;60.10;;;14.21;61.63;101195.91;12253760;19;19926;-84
2023/10/23 09:22:35;;;;;;;;;;;15.60;60.10;;;14.32;61.66;101206.59;12264258;19;20013;-84
2023/10/23 09:26:36;;;;;;;;;;;15.70;60.30;;;14.43;61.71;101214.63;12253298;19;19950;-84
2023/10/23 09:30:38;;;;;;;;;;;15.70;60.20;;;14.46;61.59;101203.09;12251058;19;19922;-85
2023/10/23 09:34:41;;;;;;;;;;;15.80;60.30;;;14.51;61.49;101199.22;12253110;19;20341;-84
2023/10/23 09:38:54;;;;;;;;;;;15.90;60.30;;;14.35;61.74;101156.47;12250459;19;20321;-85
2023/10/23 09:42:58;;;;;;;;;;;15.90;60.30;;;14.69;61.57;101206.88;12249467;19;20337;-84
2023/10/23 09:47:01;;;;;;;;;;;16.00;60.30;;;14.72;61.62;101197.03;12250997;19;20397;-84
2023/10/23 09:51:04;;;;;;;;;;;16.10;60.30;;;14.82;61.74;101200.75;12263223;19;19927;-85
2023/10/23 09:55:06;;;;;;;;;;;16.20;60.40;;;14.77;61.62;101173.91;12267187;19;19938;-85
2023/10/23 09:59:11;;;;;;;;;;;16.30;60.40;;;15.05;61.87;101209.75;12262509;19;19915;-83
2023/10/23 10:03:16;;;;;;;;;;;16.40;60.50;;;15.04;61.85;101186.16;12256132;19;19919;-85
2023/10/23 10:07:23;;;;;;;;;;;16.50;60.40;;;15.23;61.79;101199.78;12249712;19;19919;-83
2023/10/23 10:11:26;;;;;;;;;;;16.50;60.20;;;15.27;61.77;101189.88;12247501;19;19926;-83
2023/10/23 10:15:28;;;;;;;;;;;16.60;60.30;;;15.34;61.72;101191.16;12248808;19;19943;-85
2023/10/23 10:19:30;;;;;;;;;;;16.70;60.20;;;15.30;61.72;101159.88;12249440;19;19915;-84
2023/10/23 10:23:35;;;;;;;;;;;16.80;60.50;;;15.35;61.93;101145.47;12249310;19;19923;-84
2023/10/23 10:27:36;;;;;;;;;;;16.90;60.70;;;15.84;62.09;101192.13;12248127;19;19930;-83
2023/10/23 10:32:02;;;;;;;;;;;17.10;61.00;;;16.01;62.05;101198.00;12246268;19;19933;-83
2023/10/23 10:36:05;;;;;;;;;;;17.30;61.20;;;16.15;62.14;101180.28;12253074;19;19922;-83
2023/10/23 10:40:08;;;;;;;;;;;17.50;61.20;;;16.35;62.21;101186.75;12249447;19;19929;-84
2023/10/23 10:44:10;;;;;;;;;;;17.70;61.00;;;16.45;62.23;101176.38;12248578;19;20257;-86
2023/10/23 10:48:11;;;;;;;;;;;17.80;60.50;;;16.57;62.22;101178.09;12244495;19;20030;-83
2023/10/23 10:52:30;;;;;;;;;;;18.00;60.40;;;16.77;62.09;101168.78;12247356;19;19923;-83
2023/10/23 10:56:32;;;;;;;;;;;18.10;60.10;;;16.81;62.12;101151.75;12246235;19;19966;-84
2023/10/23 11:00:38;;;;;;;;;;;18.30;59.90;;;17.02;62.24;101159.84;12246317;19;19910;-83
2023/10/23 11:04:39;;;;;;;;;;;18.40;59.80;;;17.03;62.04;101147.50;12246258;19;19929;-84
2023/10/23 11:08:40;;;;;;;;;;;18.50;59.30;;;17.14;61.90;101154.59;12244787;19;19929;-84
2023/10/23 11:12:42;;;;;;;;;;;18.60;59.30;;;17.22;61.84;101150.41;12249592;19;19915;-84
2023/10/23 11:16:44;;;;;;;;;;;18.70;59.20;;;17.21;61.98;101132.91;12241495;19;19918;-83
2023/10/23 11:20:47;;;;;;;;;;;18.70;58.90;;;17.29;61.75;101145.53;12243512;19;20516;-83
2023/10/23 11:24:48;;;;;;;;;;;18.70;58.90;;;17.29;61.97;101150.81;12255474;19;19918;-83
2023/10/23 11:28:50;;;;;;;;;;;18.70;58.80;;;17.20;61.89;101133.88;12262349;19;19911;-83
2023/10/23 11:32:52;;;;;;;;;;;18.70;58.70;;;17.27;61.72;101136.03;12266204;19;19922;-83
2023/10/23 11:36:53;;;;;;;;;;;18.70;58.80;;;17.39;61.87;101153.56;12264339;19;19927;-84
2023/10/23 11:40:55;;;;;;;;;;;18.70;58.60;;;17.33;61.64;101128.47;12266916;19;19915;-83
2023/10/23 11:44:57;;;;;;;;;;;18.80;58.60;;;17.43;61.55;101142.66;12262850;19;19978;-84
2023/10/23 11:49:01;;;;;;;;;;;18.80;58.50;;;17.50;61.56;101139.53;12264065;19;19922;-84
2023/10/23 11:53:03;;;;;;;;;;;18.90;58.70;;;17.59;61.58;101144.13;12262372;19;19942;-84
2023/10/23 11:57:05;;;;;;;;;;;18.90;58.60;;;17.63;61.41;101149.03;12267226;19;19929;-84
2023/10/23 12:01:07;;;;;;;;;;;19.00;58.50;;;17.68;61.36;101144.22;12259925;19;19926;-85
2023/10/23 12:05:12;;;;;;;;;;;19.00;58.30;;;17.75;61.43;101138.47;12264570;19;19911;-84
2023/10/23 12:09:14;;;;;;;;;;;19.10;58.10;;;17.74;61.47;101135.00;12272001;19;19936;-85
2023/10/23 12:13:16;;;;;;;;;;;19.10;58.20;;;17.73;61.35;101129.81;12275565;19;19919;-84
2023/10/23 12:17:17;;;;;;;;;;;19.10;56.50;;;17.65;61.47;101114.56;12275220;19;19927;-83
2023/10/23 12:21:18;;;;;;;;;;;19.20;57.70;;;17.84;61.37;101141.25;12271370;19;19918;-84
2023/10/23 12:25:20;;;;;;;;;;;19.20;57.90;;;17.87;61.33;101132.22;12273737;19;19910;-83
2023/10/23 12:29:22;;;;;;;;;;;19.20;57.00;;;17.97;61.08;101146.41;12271238;19;20257;-84
2023/10/23 12:33:23;;;;;;;;;;;19.20;57.90;;;17.94;61.13;101135.25;12275324;19;19947;-85
2023/10/23 12:37:28;;;;;;;;;;;19.30;58.00;;;17.74;61.07;101091.88;12269835;19;19915;-84
2023/10/23 12:41:30;;;;;;;;;;;19.20;58.00;;;18.02;61.29;101133.66;12280682;19;19918;-84
2023/10/23 12:45:31;;;;;;;;;;;19.30;58.10;;;18.06;61.12;101132.44;12269831;19;20369;-84
2023/10/23 12:49:32;;;;;;;;;;;19.30;58.00;;;18.10;61.16;101133.88;12265004;19;19994;-83
2023/10/23 12:53:34;;;;;;;;;;;19.30;57.90;;;18.03;61.11;101113.34;12261400;19;19923;-85
2023/10/23 12:57:35;;;;;;;;;;;19.40;58.10;;;18.13;60.90;101130.16;12268817;19;19911;-84
2023/10/23 13:01:37;;;;;;;;;;;19.30;57.90;;;18.06;60.83;101103.38;12269143;19;19925;-84
2023/10/23 13:05:39;;;;;;;;;;;19.40;57.90;;;18.17;60.80;101118.34;12272201;19;19911;-84
2023/10/23 13:09:40;;;;;;;;;;;19.40;57.70;;;18.17;61.07;101110.41;12271279;19;20137;-84
2023/10/23 13:13:41;;;;;;;;;;;19.40;57.90;;;18.14;60.85;101111.50;12269019;19;19933;-85
2023/10/23 13:17:43;;;;;;;;;;;19.40;57.90;;;18.16;60.75;101102.63;12264228;19;19926;-83
2023/10/23 13:21:45;;;;;;;;;;;19.40;57.90;;;18.13;60.98;101103.72;12281705;19;19927;-84
2023/10/23 13:25:46;;;;;;;;;;;19.40;57.80;;;18.18;61.07;101104.19;12280207;19;19977;-82
2023/10/23 13:29:47;;;;;;;;;;;19.40;57.80;;;18.21;60.81;101111.88;12280555;19;19927;-84
2023/10/23 13:33:50;;;;;;;;;;;19.40;57.90;;;18.19;60.83;101100.56;12289531;19;19941;-84
2023/10/23 13:37:51;;;;;;;;;;;19.40;57.90;;;18.14;60.77;101079.78;12286804;19;19918;-83
2023/10/23 13:41:53;;;;;;;;;;;19.40;57.90;;;18.25;60.72;101104.50;12287137;19;19938;-83
2023/10/23 13:45:54;;;;;;;;;;;19.50;58.00;;;18.18;60.65;101093.63;12282332;19;20349;-83
2023/10/23 13:49:58;;;;;;;;;;;19.40;57.90;;;18.23;60.82;101098.53;12273571;19;19930;-83
2023/10/23 13:53:59;;;;;;;;;;;19.50;57.50;;;18.26;60.71;101093.84;12265381;19;19919;-83
2023/10/23 13:58:01;;;;;;;;;;;19.40;57.00;;;18.29;60.49;101095.38;12272539;19;19914;-83
2023/10/23 14:02:03;;;;;;;;;;;19.50;57.40;;;18.32;60.73;101101.25;12275324;19;20333;-83
2023/10/23 14:06:04;;;;;;;;;;;19.50;57.50;;;18.33;60.51;101084.44;12269086;19;19919;-85
2023/10/23 14:10:06;;;;;;;;;;;19.50;57.40;;;18.33;60.49;101083.56;12266368;19;19914;-82
2023/10/23 14:14:07;;;;;;;;;;;19.50;57.70;;;18.31;60.77;101069.66;12264397;19;19986;-83
2023/10/23 14:18:09;;;;;;;;;;;19.50;57.80;;;18.38;60.65;101084.03;12264000;19;19926;-84
2023/10/23 14:22:10;;;;;;;;;;;19.50;57.70;;;18.30;60.69;101070.63;12270637;19;19907;-84
2023/10/23 14:26:12;;;;;;;;;;;19.60;57.80;;;18.41;60.37;101091.72;12262028;19;19938;-84
2023/10/23 14:30:14;;;;;;;;;;;19.50;57.60;;;18.33;60.26;101067.72;12225383;19;19918;-84
2023/10/23 14:34:16;;;;;;;;;;;19.50;57.60;;;18.33;60.48;101070.34;12260415;19;20255;-84
2023/10/23 14:38:17;;;;;;;;;;;19.50;57.70;;;18.36;60.43;101072.75;12268474;19;19922;-83
2023/10/23 14:42:20;;;;;;;;;;;19.50;57.90;;;18.35;60.35;101066.63;12268887;19;19918;-85
2023/10/23 14:46:23;;;;;;;;;;;19.50;58.00;;;18.35;60.44;101071.06;12268303;19;19930;-84
2023/10/23 14:50:25;;;;;;;;;;;19.50;58.10;;;18.28;60.09;101057.53;12254561;19;19929;-83
2023/10/23 14:54:26;;;;;;;;;;;19.40;58.10;;;18.28;60.31;101056.66;12264177;19;19919;-84
2023/10/23 14:58:28;;;;;;;;;;;19.40;58.10;;;18.21;60.43;101059.00;12262361;19;19913;-83
2023/10/23 15:02:30;;;;;;;;;;;19.30;58.10;;;18.09;60.17;101045.00;12263185;19;19918;-83
2023/10/23 15:06:31;;;;;;;;;;;19.30;58.10;;;18.05;60.12;101037.44;12264215;19;20260;-83
2023/10/23 15:10:37;;;;;;;;;;;19.30;58.10;;;18.04;60.39;101035.75;12258664;19;19942;-84
2023/10/23 15:14:39;;;;;;;;;;;19.20;58.10;;;18.06;60.16;101049.66;12262894;19;20368;-83
2023/10/23 15:18:40;;;;;;;;;;;19.20;58.20;;;17.90;60.02;101031.56;12263214;19;19991;-83
2023/10/23 15:22:45;;;;;;;;;;;19.10;58.10;;;17.85;60.03;101033.78;12265592;19;19914;-83
2023/10/23 15:26:47;;;;;;;;;;;19.00;58.00;;;17.78;60.01;101033.38;12259175;19;19918;-84
2023/10/23 15:30:56;;;;;;;;;;;19.00;58.10;;;17.61;60.01;101013.63;12252935;19;19915;-84
2023/10/23 15:34:57;;;;;;;;;;;18.80;58.00;;;17.72;59.93;101046.25;12258615;19;19945;-83
2023/10/23 15:38:59;;;;;;;;;;;18.80;58.00;;;17.66;60.05;101044.94;12255572;19;19942;-85
2023/10/23 15:43:00;;;;;;;;;;;18.70;57.90;;;17.53;60.05;101036.34;12257513;19;19915;-83
2023/10/23 15:47:02;;;;;;;;;;;18.60;58.00;;;17.37;59.92;101015.56;12254455;19;19943;-84
2023/10/23 15:51:04;;;;;;;;;;;18.50;58.00;;;17.36;59.94;101030.59;12255899;19;20226;-84
2023/10/23 15:55:06;;;;;;;;;;;18.50;57.90;;;17.32;59.84;101030.94;12255212;19;19935;-83
2023/10/23 15:59:08;;;;;;;;;;;18.40;57.90;;;17.25;59.69;101028.78;12257114;19;20306;-83
2023/10/23 16:03:09;;;;;;;;;;;18.30;57.90;;;17.26;59.96;101037.53;12253212;19;19918;-84
2023/10/23 16:07:11;;;;;;;;;;;18.20;57.90;;;17.15;59.85;101027.00;12257053;19;19934;-84
2023/10/23 16:11:19;;;;;;;;;;;18.20;57.90;;;17.12;59.79;101035.97;12249899;19;20158;-83
2023/10/23 16:15:20;;;;;;;;;;;18.10;57.90;;;17.01;59.64;101035.94;12254657;19;20432;-83
2023/10/23 16:19:22;;;;;;;;;;;18.00;57.80;;;16.84;59.65;101024.06;12248349;19;19942;-83
2023/10/23 16:23:24;;;;;;;;;;;17.90;57.80;;;16.86;59.68;101023.97;12253980;19;19990;-83
2023/10/23 16:27:25;;;;;;;;;;;17.80;57.80;;;16.59;59.72;101001.34;12251010;19;19925;-83
2023/10/23 16:31:26;;;;;;;;;;;17.70;57.70;;;16.67;59.77;101029.78;12232979;19;19974;-83
2023/10/23 16:35:28;;;;;;;;;;;17.60;57.70;;;16.60;59.35;101026.75;12249061;19;19923;-85
2023/10/23 16:39:30;;;;;;;;;;;17.60;57.80;;;16.48;59.59;101015.34;12255225;19;19978;-83
2023/10/23 16:43:32;;;;;;;;;;;17.50;57.80;;;16.48;59.70;101025.06;12254617;19;19986;-83
2023/10/23 16:47:33;;;;;;;;;;;17.40;57.90;;;16.37;59.66;101021.41;12252278;19;19906;-84
2023/10/23 16:51:34;;;;;;;;;;;17.30;57.90;;;16.34;59.55;101021.66;12252943;19;19927;-83
2023/10/23 16:55:36;;;;;;;;;;;17.20;57.90;;;16.17;59.42;100997.50;12253623;19;19907;-83
2023/10/23 16:59:38;;;;;;;;;;;17.20;57.90;;;16.17;59.55;101006.25;12254356;19;19930;-83
2023/10/23 17:03:40;;;;;;;;;;;17.10;57.90;;;16.13;59.43;101008.28;12265462;19;19911;-84
2023/10/23 17:07:41;;;;;;;;;;;17.00;57.90;;;16.08;59.65;101007.75;12259698;19;19923;-84
2023/10/23 17:11:44;;;;;;;;;;;17.00;57.90;;;16.02;59.74;101007.41;12265643;19;20006;-83
2023/10/23 17:15:45;;;;;;;;;;;16.90;57.80;;;15.94;59.60;101010.59;12259615;19;19915;-84
2023/10/23 17:19:47;;;;;;;;;;;16.80;57.80;;;15.79;59.63;100993.25;12257896;19;19919;-83
2023/10/23 17:23:49;;;;;;;;;;;16.80;57.80;;;15.83;59.65;101011.38;12264137;19;19966;-84
2023/10/23 17:27:54;;;;;;;;;;;16.70;57.80;;;15.78;59.53;101002.97;12262897;19;20350;-83
2023/10/23 17:31:55;;;;;;;;;;;16.60;57.80;;;15.64;59.48;100995.19;12265382;19;19918;-83
2023/10/23 17:35:57;;;;;;;;;;;16.60;57.80;;;15.55;59.59;100980.88;12260993;19;19915;-84
2023/10/23 17:40:04;;;;;;;;;;;16.50;57.80;;;15.52;59.62;100986.38;12264635;19;19919;-83
2023/10/23 17:44:05;;;;;;;;;;;16.40;57.90;;;15.54;59.60;100995.00;12263694;19;19918;-83
2023/10/23 17:48:07;;;;;;;;;;;16.40;57.90;;;15.48;59.66;100993.66;12257896;19;19923;-83
2023/10/23 17:52:09;;;;;;;;;;;16.40;57.90;;;15.44;59.60;100994.81;12257564;19;19949;-83
2023/10/23 17:56:11;;;;;;;;;;;16.30;57.80;;;15.39;59.71;100988.19;12261891;19;19943;-84
2023/10/23 18:00:13;;;;;;;;;;;16.30;57.90;;;15.24;59.57;100982.25;12262157;19;19914;-83
2023/10/23 18:04:14;;;;;;;;;;;16.20;57.80;;;15.29;59.49;100993.28;12262391;19;19926;-84
2023/10/23 18:08:16;;;;;;;;;;;16.10;57.70;;;15.21;59.53;100993.81;12259039;19;20512;-83